createdAt,value
2022-08-11T00:02:00.691Z,5.80
2022-08-11T00:04:36.117Z,4.30
2022-08-11T00:07:05.072Z,4.07
2022-08-11T00:09:39.165Z,4.45
2022-08-11T00:12:14.892Z,4.20
2022-08-11T00:14:43.386Z,5.72
2022-08-11T00:17:14.040Z,6.72
2022-08-11T00:20:12.077Z,3.80
2022-08-11T00:22:34.533Z,3.38
2022-08-11T00:25:10.161Z,6.20
2022-08-11T00:27:40.413Z,4.00
2022-08-11T00:30:12.477Z,5.80
2022-08-11T00:32:42.218Z,4.88
2022-08-11T00:35:56.228Z,6.72
2022-08-11T00:38:04.143Z,7.18
2022-08-11T00:40:42.777Z,5.40
2022-08-11T00:43:28.058Z,6.30
2022-08-11T00:46:06.856Z,3.92
2022-08-11T00:48:48.825Z,8.07
2022-08-11T00:52:05.175Z,3.85
2022-08-11T00:54:40.859Z,5.00
2022-08-11T00:57:37.375Z,3.47
2022-08-11T01:00:12.728Z,7.22
2022-08-11T01:02:59.686Z,4.63
2022-08-11T01:05:45.219Z,3.85
2022-08-11T01:08:33.906Z,9.98
2022-08-11T01:11:32.238Z,4.93
2022-08-11T01:14:33.895Z,7.47
2022-08-11T01:17:10.810Z,5.20
2022-08-11T01:20:45.324Z,5.47
2022-08-11T01:23:21.317Z,6.47
2022-08-11T01:26:20.700Z,5.65
2022-08-11T01:29:11.476Z,5.22
2022-08-11T01:32:13.495Z,6.50
2022-08-11T01:35:15.381Z,9.10
2022-08-11T01:38:01.946Z,3.58
2022-08-11T01:40:28.642Z,8.30
2022-08-11T01:43:15.934Z,4.47
2022-08-11T01:46:03.407Z,6.82
2022-08-11T01:48:49.892Z,5.43
2022-08-11T01:51:24.233Z,5.18
2022-08-11T01:53:59.899Z,10.82
2022-08-11T01:56:49.616Z,5.82
2022-08-11T01:59:19.213Z,5.00
2022-08-11T02:02:21.267Z,4.28
2022-08-11T02:05:14.617Z,3.67
2022-08-11T02:08:01.836Z,5.05
2022-08-11T02:11:23.051Z,6.03
2022-08-11T02:13:56.318Z,3.85
2022-08-11T02:16:23.248Z,9.23
2022-08-11T02:19:19.592Z,3.60
2022-08-11T02:22:13.484Z,4.75
2022-08-11T02:25:01.939Z,3.72
2022-08-11T02:27:41.554Z,4.25
2022-08-11T02:30:14.132Z,5.97
2022-08-11T02:33:18.148Z,4.90
2022-08-11T02:36:08.413Z,8.02
2022-08-11T02:38:49.625Z,5.93
2022-08-11T02:41:41.964Z,4.72
2022-08-11T02:44:14.562Z,6.20
2022-08-11T02:46:50.167Z,5.35
2022-08-11T02:50:06.140Z,7.93
2022-08-11T02:53:22.780Z,9.70
2022-08-11T02:56:09.246Z,9.25
2022-08-11T02:59:11.463Z,12.77
2022-08-11T03:01:53.194Z,10.77
2022-08-11T03:04:59.193Z,14.32
2022-08-11T03:07:29.909Z,8.77
2022-08-11T03:10:21.713Z,5.93
2022-08-11T03:13:48.780Z,11.65
2022-08-11T03:16:45.526Z,8.82
2022-08-11T03:19:25.295Z,6.40
2022-08-11T03:22:08.394Z,7.85
2022-08-11T03:25:12.767Z,9.68
2022-08-11T03:27:57.888Z,10.32
2022-08-11T03:30:40.313Z,7.97
2022-08-11T03:33:47.488Z,6.40
2022-08-11T03:36:57.601Z,9.45
2022-08-11T03:39:55.486Z,5.70
2022-08-11T03:42:32.556Z,8.15
2022-08-11T03:45:26.372Z,5.00
2022-08-11T03:48:10.502Z,3.33
2022-08-11T03:50:56.116Z,4.78
2022-08-11T03:53:54.255Z,4.63
2022-08-11T03:56:42.591Z,3.58
2022-08-11T03:59:39.973Z,4.00
2022-08-11T04:02:45.398Z,6.93
2022-08-11T04:05:36.506Z,5.18
2022-08-11T04:08:42.062Z,5.32
2022-08-11T04:11:42.668Z,3.90
2022-08-11T04:14:50.660Z,3.85
2022-08-11T04:17:41.066Z,5.13
2022-08-11T04:20:26.694Z,3.40
2022-08-11T04:23:03.350Z,6.65
2022-08-11T04:25:57.982Z,5.25
2022-08-11T04:28:59.886Z,5.25
2022-08-11T04:31:51.931Z,4.47
2022-08-11T04:34:54.007Z,3.47
2022-08-11T04:37:42.474Z,5.10
2022-08-11T04:40:27.907Z,4.63
2022-08-11T04:43:28.982Z,3.60
2022-08-11T04:46:10.418Z,5.38
2022-08-11T04:49:25.819Z,3.97
2022-08-11T04:52:47.075Z,4.28
2022-08-11T04:56:10.314Z,5.32
2022-08-11T04:59:30.257Z,4.22
2022-08-11T05:02:17.845Z,6.38
2022-08-11T05:05:32.661Z,3.47
2022-08-11T05:08:24.670Z,3.60
2022-08-11T05:11:29.234Z,4.75
2022-08-11T05:14:43.526Z,5.47
2022-08-11T05:17:33.100Z,3.55
2022-08-11T05:20:18.991Z,4.03
2022-08-11T05:23:09.669Z,4.57
2022-08-11T05:26:47.501Z,7.38
2022-08-11T05:29:24.340Z,6.30
2022-08-11T05:32:17.513Z,4.22
2022-08-11T05:34:54.433Z,3.75
2022-08-11T05:37:30.170Z,15.10
2022-08-11T05:40:29.874Z,3.63
2022-08-11T05:43:25.810Z,6.25
2022-08-11T05:46:22.560Z,4.03
2022-08-11T05:49:08.741Z,2.72
2022-08-11T05:52:05.068Z,4.57
2022-08-11T05:55:06.049Z,2.70
2022-08-11T05:57:38.520Z,5.95
2022-08-11T06:00:19.545Z,2.90
2022-08-11T06:02:50.281Z,3.33
2022-08-11T06:05:19.639Z,4.90
2022-08-11T06:07:50.172Z,4.03
2022-08-11T06:10:46.701Z,7.90
2022-08-11T06:13:17.896Z,5.32
2022-08-11T06:15:50.739Z,2.58
2022-08-11T06:18:18.308Z,3.25
2022-08-11T06:20:50.880Z,5.00
2022-08-11T06:23:20.434Z,3.83
2022-08-11T06:25:48.431Z,4.28
2022-08-11T06:28:20.531Z,6.05
2022-08-11T06:30:48.982Z,3.75
2022-08-11T06:33:17.291Z,5.65
2022-08-11T06:36:02.975Z,5.65
2022-08-11T06:38:51.379Z,5.32
2022-08-11T06:41:32.109Z,5.03
2022-08-11T06:44:14.417Z,5.47
2022-08-11T06:46:48.133Z,4.63
2022-08-11T06:49:36.593Z,8.85
2022-08-11T06:52:35.064Z,6.03
2022-08-11T06:55:06.497Z,6.88
2022-08-11T06:57:56.738Z,6.00
2022-08-11T07:00:33.308Z,6.93
2022-08-11T07:03:10.507Z,7.78
2022-08-11T07:06:09.508Z,7.15
2022-08-11T07:09:19.336Z,11.15
2022-08-11T07:12:12.072Z,10.73
2022-08-11T07:15:05.897Z,7.05
2022-08-11T07:17:49.256Z,8.85
2022-08-11T07:20:36.436Z,7.53
2022-08-11T07:23:26.054Z,16.00
2022-08-11T07:26:15.406Z,8.20
2022-08-11T07:29:00.807Z,7.45
2022-08-11T07:31:40.697Z,7.35
2022-08-11T07:34:22.448Z,10.23
2022-08-11T07:36:55.361Z,7.93
2022-08-11T07:39:27.216Z,14.13
2022-08-11T07:41:57.285Z,8.60
2022-08-11T07:44:34.447Z,7.75
2022-08-11T07:47:21.256Z,5.53
2022-08-11T07:50:08.957Z,11.35
2022-08-11T07:52:38.426Z,6.15
2022-08-11T07:55:13.934Z,7.63
2022-08-11T07:58:15.370Z,7.68
2022-08-11T08:01:22.350Z,4.95
2022-08-11T08:04:09.283Z,4.57
2022-08-11T08:06:55.882Z,4.00
2022-08-11T08:09:43.008Z,5.55
2022-08-11T08:12:28.673Z,6.13
2022-08-11T08:15:15.625Z,3.80
2022-08-11T08:18:09.952Z,3.85
2022-08-11T08:20:46.013Z,5.13
2022-08-11T08:23:13.781Z,5.65
2022-08-11T08:25:43.318Z,4.93
2022-08-11T08:28:20.859Z,4.00
2022-08-11T08:30:56.195Z,3.42
2022-08-11T08:33:29.110Z,5.47
2022-08-11T08:36:12.111Z,5.78
2022-08-11T08:38:51.277Z,3.70
2022-08-11T08:41:22.990Z,8.90
2022-08-11T08:43:55.815Z,6.55
2022-08-11T08:46:30.714Z,3.90
2022-08-11T08:49:01.826Z,6.50
2022-08-11T08:51:58.637Z,4.40
2022-08-11T08:54:34.139Z,3.30
2022-08-11T08:57:04.906Z,3.42
2022-08-11T08:59:47.909Z,4.40
2022-08-11T09:02:34.527Z,4.03
2022-08-11T09:05:04.114Z,3.95
2022-08-11T09:07:38.675Z,4.20
2022-08-11T09:10:09.417Z,3.33
2022-08-11T09:12:39.206Z,6.60
2022-08-11T09:15:09.191Z,3.75
2022-08-11T09:17:41.921Z,3.88
2022-08-11T09:20:14.802Z,6.75
2022-08-11T09:26:15.655Z,3.13
2022-08-11T09:28:44.246Z,4.63
2022-08-11T09:31:13.503Z,3.90
2022-08-11T09:33:42.844Z,3.90
2022-08-11T09:36:30.956Z,2.95
2022-08-11T09:39:18.568Z,4.30
2022-08-11T09:42:00.296Z,2.38
2022-08-11T09:44:50.492Z,3.95
2022-08-11T09:47:19.787Z,3.20
2022-08-11T09:49:49.054Z,3.33
2022-08-11T09:52:18.455Z,5.85
2022-08-11T09:54:48.590Z,7.13
2022-08-11T09:57:38.188Z,2.72
2022-08-11T10:00:12.423Z,3.03
2022-08-11T10:02:48.781Z,4.70
2022-08-11T10:05:38.022Z,6.75
2022-08-11T10:08:07.314Z,3.10
2022-08-11T10:10:39.673Z,2.60
2022-08-11T10:14:32.252Z,2.20
2022-08-11T10:16:15.825Z,2.28
2022-08-11T10:18:52.576Z,3.83
2022-08-11T10:21:34.608Z,2.58
2022-08-11T10:24:21.392Z,3.20
2022-08-11T10:27:00.055Z,3.35
2022-08-11T10:30:00.166Z,2.97
2022-08-11T10:32:58.427Z,2.80
2022-08-11T10:35:32.569Z,1.85
2022-08-11T10:38:07.517Z,1.88
2022-08-11T10:40:39.697Z,3.70
2022-08-11T10:43:14.059Z,2.20
2022-08-11T10:46:05.300Z,2.10
2022-08-11T10:48:38.957Z,3.47
2022-08-11T10:51:14.134Z,3.28
2022-08-11T10:54:12.448Z,1.90
2022-08-11T10:56:59.351Z,1.25
2022-08-11T10:59:28.502Z,2.42
2022-08-11T11:01:56.152Z,1.63
2022-08-11T11:04:58.646Z,1.80
2022-08-11T11:08:00.608Z,2.38
2022-08-11T11:10:27.597Z,2.05
2022-08-11T11:13:16.533Z,2.95
2022-08-11T11:16:05.429Z,2.38
2022-08-11T11:18:36.653Z,1.33
2022-08-11T11:21:08.436Z,3.15
2022-08-11T11:23:41.606Z,1.92
2022-08-11T11:26:27.158Z,5.47
2022-08-11T11:29:16.023Z,1.95
2022-08-11T11:31:58.583Z,1.92
2022-08-11T11:34:58.271Z,1.30
2022-08-11T11:37:26.021Z,2.58
2022-08-11T11:39:55.144Z,1.10
2022-08-11T11:42:22.941Z,1.50
2022-08-11T11:44:54.113Z,1.80
2022-08-11T11:47:23.666Z,1.90
2022-08-11T11:49:50.916Z,2.10
2022-08-11T11:52:21.116Z,6.80
2022-08-11T11:54:50.522Z,2.60
2022-08-11T11:57:38.541Z,2.83
2022-08-11T12:00:33.608Z,1.00
2022-08-11T12:03:05.512Z,3.50
2022-08-11T12:05:34.691Z,1.08
2022-08-11T12:08:21.604Z,1.50
2022-08-11T12:11:36.390Z,1.02
2022-08-11T12:14:10.584Z,1.33
2022-08-11T12:16:41.311Z,0.98
2022-08-11T12:19:12.974Z,2.42
2022-08-11T12:22:01.405Z,1.52
2022-08-11T12:24:48.988Z,0.75
2022-08-11T12:27:24.831Z,1.95
2022-08-11T12:29:56.141Z,1.27
2022-08-11T12:32:25.920Z,1.63
2022-08-11T12:34:53.723Z,1.50
2022-08-11T12:37:37.832Z,3.08
2022-08-11T12:40:42.494Z,2.25
2022-08-11T12:43:39.681Z,1.60
2022-08-11T12:46:29.580Z,0.70
2022-08-11T12:49:22.787Z,2.22
2022-08-11T12:52:14.877Z,1.15
2022-08-11T12:54:52.572Z,1.48
2022-08-11T12:57:57.198Z,0.75
2022-08-11T13:00:44.280Z,2.80
2022-08-11T13:03:32.231Z,0.85
2022-08-11T13:06:02.735Z,0.68
2022-08-11T13:08:35.591Z,1.77
2022-08-11T13:11:22.315Z,1.95
2022-08-11T13:13:57.127Z,1.50
2022-08-11T13:16:56.702Z,1.92
2022-08-11T13:19:24.242Z,0.50
2022-08-11T13:21:53.061Z,1.17
2022-08-11T13:24:22.700Z,3.35
2022-08-11T13:26:51.571Z,0.98
2022-08-11T13:29:20.655Z,0.98
2022-08-11T13:31:48.611Z,1.83
2022-08-11T13:34:17.592Z,0.57
2022-08-11T13:36:45.358Z,0.47
2022-08-11T13:39:13.606Z,0.98
2022-08-11T13:41:45.061Z,2.63
2022-08-11T13:44:15.939Z,2.42
2022-08-11T13:46:46.163Z,1.30
2022-08-11T13:49:17.238Z,0.77
2022-08-11T13:51:44.750Z,2.60
2022-08-11T13:54:18.977Z,2.85
2022-08-11T13:56:49.676Z,1.17
2022-08-11T13:59:30.955Z,1.38
2022-08-11T14:02:28.315Z,2.80
2022-08-11T14:05:17.648Z,0.93
2022-08-11T14:08:00.425Z,1.23
2022-08-11T14:10:30.222Z,0.95
2022-08-11T14:13:41.145Z,1.10
2022-08-11T14:16:18.604Z,0.75
2022-08-11T14:18:47.890Z,1.85
2022-08-11T14:21:37.316Z,2.30
2022-08-11T14:24:04.831Z,1.48
2022-08-11T14:26:38.751Z,2.03
2022-08-11T14:29:16.181Z,1.45
2022-08-11T14:31:55.381Z,1.08
2022-08-11T14:34:25.101Z,1.02
2022-08-11T14:36:54.261Z,3.22
2022-08-11T14:39:29.204Z,0.90
2022-08-11T14:42:20.941Z,2.15
2022-08-11T14:45:19.778Z,1.13
2022-08-11T14:47:52.740Z,2.78
2022-08-11T14:50:23.278Z,1.40
2022-08-11T14:52:55.153Z,0.90
2022-08-11T14:55:43.653Z,0.60
2022-08-11T14:58:13.033Z,1.02
2022-08-11T15:00:41.891Z,1.23
2022-08-11T15:03:12.631Z,0.70
2022-08-11T15:05:53.727Z,0.60
2022-08-11T15:08:52.046Z,1.38
2022-08-11T15:11:40.297Z,0.73
2022-08-11T15:14:08.882Z,0.45
2022-08-11T15:17:00.900Z,3.53
2022-08-11T15:19:30.104Z,0.60
2022-08-11T15:22:28.591Z,3.17
2022-08-11T15:24:58.734Z,3.55
2022-08-11T15:27:46.540Z,6.60
2022-08-11T15:30:33.716Z,2.33
2022-08-11T15:33:25.818Z,2.72
2022-08-11T15:36:12.810Z,2.03
2022-08-11T15:38:47.505Z,0.70
2022-08-11T15:41:35.882Z,0.40
2022-08-11T15:44:44.686Z,2.17
2022-08-11T15:47:14.254Z,0.77
2022-08-11T15:50:12.476Z,0.70
2022-08-11T15:52:34.554Z,0.50
2022-08-11T15:55:08.879Z,3.17
2022-08-11T15:57:56.222Z,2.13
2022-08-11T16:00:42.536Z,0.80
2022-08-11T16:04:06.175Z,0.95
2022-08-11T16:06:16.973Z,0.40
2022-08-11T16:08:45.661Z,1.75
2022-08-11T16:11:13.862Z,0.50
2022-08-11T16:13:41.565Z,1.30
2022-08-11T16:16:16.044Z,0.55
2022-08-11T16:18:51.900Z,1.70
2022-08-11T16:21:35.126Z,2.10
2022-08-11T16:27:01.593Z,0.60
2022-08-11T16:27:09.352Z,6.18
2022-08-11T16:29:45.543Z,1.27
2022-08-11T16:32:16.883Z,1.08
2022-08-11T16:35:18.928Z,1.15
2022-08-11T16:38:05.535Z,0.60
2022-08-11T16:40:33.801Z,3.17
2022-08-11T16:43:21.993Z,1.60
2022-08-11T16:46:08.555Z,1.35
2022-08-11T16:48:38.883Z,1.40
2022-08-11T16:51:12.025Z,1.05
2022-08-11T16:53:50.124Z,1.20
2022-08-11T16:56:44.042Z,0.75
2022-08-11T16:59:20.694Z,1.15
2022-08-11T17:02:02.374Z,0.60
2022-08-11T17:05:05.417Z,2.88
2022-08-11T17:07:51.813Z,0.50
2022-08-11T17:10:53.257Z,1.05
2022-08-11T17:13:33.773Z,2.20
2022-08-11T17:16:09.222Z,2.72
2022-08-11T17:18:59.879Z,2.13
2022-08-11T17:22:04.825Z,2.92
2022-08-11T17:24:36.529Z,1.42
2022-08-11T17:27:07.515Z,3.88
2022-08-11T17:29:55.456Z,5.82
2022-08-11T17:32:55.863Z,1.85
2022-08-11T17:35:34.251Z,4.07
2022-08-11T17:38:10.104Z,1.73
2022-08-11T17:40:40.338Z,3.00
2022-08-11T17:43:28.009Z,2.40
2022-08-11T17:46:15.731Z,2.55
2022-08-11T17:48:47.975Z,2.75
2022-08-11T17:51:37.687Z,3.28
2022-08-11T17:54:26.039Z,3.33
2022-08-11T17:57:21.314Z,2.42
2022-08-11T17:59:53.959Z,2.28
2022-08-11T18:02:43.190Z,3.47
2022-08-11T18:05:13.465Z,3.03
2022-08-11T18:08:02.738Z,2.70
2022-08-11T18:10:51.220Z,3.08
2022-08-11T18:13:38.854Z,4.07
2022-08-11T18:16:24.473Z,3.83
2022-08-11T18:19:10.261Z,3.38
2022-08-11T18:22:10.961Z,4.85
2022-08-11T18:25:09.076Z,3.45
2022-08-11T18:27:56.656Z,3.80
2022-08-11T18:30:44.084Z,3.78
2022-08-11T18:33:56.738Z,2.13
2022-08-11T18:36:45.464Z,2.35
2022-08-11T18:39:33.425Z,5.78
2022-08-11T18:42:26.834Z,1.95
2022-08-11T18:45:20.264Z,4.50
2022-08-11T18:48:11.632Z,3.92
2022-08-11T18:51:30.666Z,6.90
2022-08-11T18:54:09.137Z,8.90
2022-08-11T18:56:55.101Z,9.20
2022-08-11T18:59:45.106Z,10.63
2022-08-11T19:02:32.576Z,7.45
2022-08-11T19:06:35.998Z,7.00
2022-08-11T19:08:42.046Z,7.35
2022-08-11T19:11:31.490Z,8.05
2022-08-11T19:14:19.131Z,10.70
2022-08-11T19:17:05.773Z,6.32
2022-08-11T19:19:53.576Z,10.40
2022-08-11T19:22:39.933Z,6.63
2022-08-11T19:25:26.975Z,4.30
2022-08-11T19:28:13.355Z,9.80
2022-08-11T19:31:00.212Z,3.85
2022-08-11T19:33:59.695Z,6.65
2022-08-11T19:36:53.795Z,5.70
2022-08-11T19:39:41.083Z,5.00
2022-08-11T19:42:28.101Z,6.15
2022-08-11T19:45:14.405Z,4.15
2022-08-11T19:48:30.186Z,3.30
2022-08-11T19:51:10.038Z,7.28
2022-08-11T19:53:56.638Z,3.90
2022-08-11T19:56:42.121Z,6.20
2022-08-11T19:59:28.485Z,11.45
2022-08-11T20:02:14.810Z,6.07
2022-08-11T20:05:01.132Z,8.52
2022-08-11T20:07:48.594Z,11.38
2022-08-11T20:10:37.827Z,8.80
2022-08-11T20:13:27.467Z,4.90
2022-08-11T20:16:14.863Z,5.15
2022-08-11T20:19:01.823Z,8.32
2022-08-11T20:21:47.667Z,6.25
2022-08-11T20:24:36.460Z,3.60
2022-08-11T20:27:25.383Z,4.75
2022-08-11T20:30:12.998Z,5.40
2022-08-11T20:33:00.333Z,6.57
2022-08-11T20:35:46.495Z,4.38
2022-08-11T20:38:34.611Z,6.18
2022-08-11T20:41:21.993Z,7.57
2022-08-11T20:44:09.727Z,6.60
2022-08-11T20:46:58.423Z,3.67
2022-08-11T20:49:53.782Z,3.88
2022-08-11T20:52:47.277Z,5.90
2022-08-11T20:55:46.440Z,3.42
2022-08-11T21:01:47.174Z,5.97
2022-08-11T21:04:38.177Z,4.60
2022-08-11T21:07:44.137Z,9.32
2022-08-11T21:10:47.025Z,5.10
2022-08-11T21:13:37.084Z,10.43
2022-08-11T21:16:26.849Z,4.90
2022-08-11T21:19:59.605Z,3.53
2022-08-11T21:22:30.884Z,5.40
2022-08-11T21:25:18.573Z,4.65
2022-08-11T21:28:07.254Z,4.53
2022-08-11T21:30:57.555Z,9.95
2022-08-11T21:33:49.456Z,9.80
2022-08-11T21:36:37.743Z,7.95
2022-08-11T21:39:25.414Z,7.45
2022-08-11T21:42:13.554Z,7.60
2022-08-11T21:45:01.106Z,5.65
2022-08-11T21:47:48.594Z,4.03
2022-08-11T21:50:34.463Z,9.50
2022-08-11T21:53:20.605Z,6.15
2022-08-11T21:56:08.194Z,5.50
2022-08-11T21:58:54.950Z,6.63
2022-08-11T22:01:41.127Z,3.20
2022-08-11T22:04:27.297Z,7.00
2022-08-11T22:07:13.834Z,3.97
2022-08-11T22:09:59.433Z,16.08
2022-08-11T22:12:45.654Z,10.65
2022-08-11T22:15:32.026Z,9.63
2022-08-11T22:18:20.736Z,4.90
2022-08-11T22:21:06.862Z,2.47
2022-08-11T22:23:57.951Z,4.30
2022-08-11T22:26:47.517Z,3.40
2022-08-11T22:29:49.949Z,4.85
2022-08-11T22:32:38.105Z,4.50
2022-08-11T22:35:28.428Z,3.20
2022-08-11T22:38:17.467Z,3.30
2022-08-11T22:41:03.301Z,3.67
2022-08-11T22:43:49.009Z,6.20
2022-08-11T22:46:37.361Z,3.72
2022-08-11T22:49:23.777Z,7.63
2022-08-11T22:52:09.829Z,5.90
2022-08-11T22:54:56.320Z,3.55
2022-08-11T22:58:00.847Z,4.07
2022-08-11T23:00:46.773Z,5.15
2022-08-11T23:03:36.940Z,3.38
2022-08-11T23:06:25.015Z,4.13
2022-08-11T23:09:12.220Z,4.32
2022-08-11T23:12:06.206Z,4.57
2022-08-11T23:14:54.998Z,9.75
2022-08-11T23:17:41.307Z,3.35
2022-08-11T23:20:44.666Z,4.32
2022-08-11T23:23:34.537Z,3.28
2022-08-11T23:26:21.066Z,3.10
2022-08-11T23:29:06.667Z,3.75
2022-08-11T23:31:55.116Z,5.00
2022-08-11T23:35:04.775Z,5.32
2022-08-11T23:37:51.006Z,1.98
2022-08-11T23:40:36.620Z,2.22
2022-08-11T23:43:22.151Z,3.58
2022-08-11T23:46:07.738Z,1.35
2022-08-11T23:48:56.138Z,4.18
2022-08-11T23:51:42.713Z,1.27
2022-08-11T23:54:36.436Z,2.55
2022-08-11T23:57:23.402Z,2.47
